Time;durP1;ratioP1;P1;durP2;ratioP2;P2;SDS_P1;SDS_P2;PMS_P1;PMS_P2;Temp;Humidity;BMP_temperature;BMP_pressure;BME280_temperature;BME280_humidity;BME280_pressure;Samples;Min_cycle;Max_cycle;Signal;HPM_P1;HPM_P2
2022/11/16 00:01:46;;;;;;;22.75;20.48;;;9.80;99.90;;;;;;4969884;28;20505;-77
2022/11/16 00:04:13;;;;;;;21.02;19.33;;;9.80;99.90;;;;;;4955899;28;20038;-78
2022/11/16 00:06:44;;;;;;;21.88;20.08;;;9.80;99.90;;;;;;4977173;28;20043;-78
2022/11/16 00:09:25;;;;;;;21.88;19.95;;;9.70;99.90;;;;;;4955129;28;20050;-78
2022/11/16 00:11:55;;;;;;;21.30;19.48;;;9.70;99.90;;;;;;4948333;28;20043;-77
2022/11/16 00:14:23;;;;;;;21.65;19.67;;;9.80;99.90;;;;;;4936287;28;20369;-77
2022/11/16 00:16:50;;;;;;;20.98;19.10;;;9.80;99.90;;;;;;4969334;28;20460;-78
2022/11/16 00:19:17;;;;;;;20.55;18.88;;;9.70;99.90;;;;;;4955428;28;20064;-78
2022/11/16 00:21:44;;;;;;;21.00;19.27;;;9.70;99.90;;;;;;4955684;28;20132;-79
2022/11/16 00:24:13;;;;;;;20.70;18.98;;;9.80;99.90;;;;;;4941868;28;20069;-79
2022/11/16 00:26:44;;;;;;;21.02;19.35;;;9.80;99.90;;;;;;4951359;28;20038;-79
2022/11/16 00:29:21;;;;;;;20.25;18.42;;;9.70;99.90;;;;;;4953350;28;20056;-79
2022/11/16 00:31:48;;;;;;;19.98;18.40;;;9.70;99.90;;;;;;4952793;28;20070;-79
2022/11/16 00:34:16;;;;;;;19.80;18.05;;;9.70;99.90;;;;;;4958895;28;20049;-79
2022/11/16 00:36:45;;;;;;;19.63;17.92;;;9.60;99.90;;;;;;4943214;28;20047;-79
2022/11/16 00:39:14;;;;;;;20.70;18.83;;;9.70;99.90;;;;;;4969123;28;20047;-78
2022/11/16 00:41:42;;;;;;;18.60;16.98;;;9.70;99.90;;;;;;4969384;28;20034;-79
2022/11/16 00:44:10;;;;;;;19.60;17.80;;;9.60;99.90;;;;;;4949846;28;20055;-79
2022/11/16 00:46:36;;;;;;;18.55;17.02;;;9.70;99.90;;;;;;4961248;28;20048;-80
2022/11/16 00:49:04;;;;;;;19.83;18.05;;;9.60;99.90;;;;;;4935896;28;20524;-79
2022/11/16 00:51:32;;;;;;;18.92;17.13;;;9.60;99.90;;;;;;4933402;28;20134;-80
2022/11/16 00:53:59;;;;;;;18.15;16.55;;;9.60;99.90;;;;;;4938553;28;20038;-80
2022/11/16 00:56:29;;;;;;;17.27;15.57;;;9.60;99.90;;;;;;4956864;28;20065;-80
2022/11/16 00:58:58;;;;;;;18.73;16.83;;;9.60;99.90;;;;;;4959869;28;20435;-80
2022/11/16 01:01:25;;;;;;;18.05;16.35;;;9.50;99.90;;;;;;4954828;28;20038;-78
2022/11/16 01:03:52;;;;;;;26.60;16.40;;;9.50;99.90;;;;;;4943539;28;20539;-78
2022/11/16 01:06:19;;;;;;;16.85;14.95;;;9.50;99.90;;;;;;4963796;28;20082;-78
2022/11/16 01:08:46;;;;;;;17.25;15.52;;;9.40;99.90;;;;;;4955955;28;20046;-78
2022/11/16 01:14:05;;;;;;;17.80;15.65;;;9.40;99.90;;;;;;4978192;28;20588;-77
2022/11/16 01:16:32;;;;;;;16.90;15.15;;;9.40;99.90;;;;;;4933461;28;20050;-77
2022/11/16 01:18:59;;;;;;;17.83;16.20;;;9.50;99.90;;;;;;4941741;28;20071;-78
2022/11/16 01:21:29;;;;;;;17.65;15.85;;;9.50;99.90;;;;;;4948182;28;20074;-78
2022/11/16 01:23:57;;;;;;;16.40;14.88;;;9.50;99.90;;;;;;4968751;28;20050;-77
2022/11/16 01:26:24;;;;;;;17.40;15.77;;;9.40;99.90;;;;;;4962245;28;20038;-78
2022/11/16 01:28:52;;;;;;;19.00;16.15;;;9.50;99.90;;;;;;4953188;28;20109;-77
2022/11/16 01:31:19;;;;;;;16.55;14.95;;;9.40;99.90;;;;;;4934838;29;20040;-78
2022/11/16 01:33:48;;;;;;;17.42;15.38;;;9.40;99.90;;;;;;4959263;28;20130;-78
2022/11/16 01:36:25;;;;;;;16.13;14.40;;;9.40;99.90;;;;;;4948817;28;20552;-78
2022/11/16 01:38:53;;;;;;;17.98;16.10;;;9.40;99.90;;;;;;4975725;28;20050;-78
2022/11/16 01:41:25;;;;;;;17.98;15.73;;;9.40;99.90;;;;;;4950686;28;20039;-77
2022/11/16 01:44:26;;;;;;;18.88;16.35;;;9.40;99.90;;;;;;4944256;28;20043;-77
2022/11/16 01:46:58;;;;;;;17.40;15.70;;;9.40;99.90;;;;;;4963884;28;20295;-77
2022/11/16 01:49:28;;;;;;;17.30;15.63;;;9.40;99.90;;;;;;4954622;28;20662;-77
2022/11/16 01:52:00;;;;;;;19.10;16.35;;;9.30;99.90;;;;;;4958637;28;20531;-77
2022/11/16 01:54:35;;;;;;;16.98;15.20;;;9.30;99.90;;;;;;4959956;28;20108;-77
2022/11/16 01:57:04;;;;;;;17.90;14.82;;;9.30;99.90;;;;;;4933896;28;20112;-77
2022/11/16 01:59:36;;;;;;;16.38;14.55;;;9.30;99.90;;;;;;4955380;28;20062;-77
2022/11/16 02:02:04;;;;;;;18.38;14.77;;;9.30;99.90;;;;;;4950750;28;20049;-77
2022/11/16 02:04:34;;;;;;;17.20;14.52;;;9.30;99.90;;;;;;4946654;28;20045;-78
2022/11/16 02:07:30;;;;;;;16.13;14.45;;;9.30;99.90;;;;;;4956785;28;20043;-78
2022/11/16 02:10:34;;;;;;;15.35;13.75;;;9.30;99.90;;;;;;4957984;28;20058;-77
2022/11/16 02:13:12;;;;;;;16.75;14.95;;;9.40;99.90;;;;;;4958548;28;20137;-78
2022/11/16 02:15:54;;;;;;;17.25;15.20;;;9.40;99.90;;;;;;4928552;28;20050;-78
2022/11/16 02:18:58;;;;;;;17.58;14.68;;;9.30;99.90;;;;;;4946621;28;20539;-77
2022/11/16 02:21:39;;;;;;;22.33;14.73;;;9.30;99.90;;;;;;4971644;28;20043;-77
2022/11/16 02:24:49;;;;;;;19.77;15.90;;;9.30;99.90;;;;;;4942544;28;20047;-77
2022/11/16 02:27:45;;;;;;;19.73;14.88;;;9.30;99.90;;;;;;4944161;28;20039;-76
2022/11/16 02:30:16;;;;;;;21.40;15.50;;;9.20;99.90;;;;;;4937596;28;20061;-78
2022/11/16 02:33:01;;;;;;;20.98;15.43;;;9.20;99.90;;;;;;4933466;28;20046;-77
2022/11/16 02:35:32;;;;;;;21.73;16.80;;;9.20;99.90;;;;;;4956627;28;20078;-77
2022/11/16 02:38:21;;;;;;;20.58;15.88;;;9.20;99.90;;;;;;4955684;28;20512;-77
2022/11/16 02:40:54;;;;;;;21.42;16.08;;;9.20;99.90;;;;;;4943383;28;20042;-77
2022/11/16 02:43:31;;;;;;;22.27;15.90;;;9.20;99.90;;;;;;4933173;28;20096;-77
2022/11/16 02:46:04;;;;;;;25.02;17.27;;;9.20;99.90;;;;;;4951657;28;20289;-77
2022/11/16 02:48:37;;;;;;;20.63;15.95;;;9.20;99.90;;;;;;4943116;28;20138;-77
2022/11/16 02:51:05;;;;;;;26.73;16.30;;;9.20;99.90;;;;;;4956909;28;20133;-77
2022/11/16 02:53:43;;;;;;;23.38;16.83;;;9.20;99.90;;;;;;4938755;28;20503;-77
2022/11/16 02:56:12;;;;;;;21.55;18.33;;;9.20;99.90;;;;;;4961793;28;20125;-77
2022/11/16 02:58:39;;;;;;;18.05;13.90;;;9.20;99.90;;;;;;4943907;28;20058;-77
2022/11/16 03:01:16;;;;;;;24.98;17.98;;;9.20;99.90;;;;;;4946669;28;20105;-77
2022/11/16 03:03:57;;;;;;;22.38;17.33;;;9.20;99.90;;;;;;4945807;28;20495;-77
2022/11/16 03:06:30;;;;;;;23.75;18.58;;;9.10;99.90;;;;;;4952651;28;20062;-77
2022/11/16 03:09:07;;;;;;;24.92;17.55;;;9.10;99.90;;;;;;4958959;28;20141;-77
2022/11/16 03:14:32;;;;;;;25.10;18.25;;;9.10;99.90;;;;;;4952276;28;20082;-76
2022/11/16 03:17:04;;;;;;;23.52;17.70;;;9.10;99.90;;;;;;4951493;28;20536;-77
2022/11/16 03:19:55;;;;;;;23.77;18.48;;;9.10;99.90;;;;;;4953836;28;20070;-77
2022/11/16 03:22:27;;;;;;;25.05;19.13;;;9.10;99.90;;;;;;4964881;28;20051;-77
2022/11/16 03:24:54;;;;;;;21.65;17.10;;;9.20;99.90;;;;;;4950948;28;20556;-77
2022/11/16 03:27:36;;;;;;;21.80;17.75;;;9.10;99.90;;;;;;4938133;28;20043;-77
2022/11/16 03:30:11;;;;;;;27.80;17.25;;;9.10;99.90;;;;;;4958757;28;20038;-77
2022/11/16 03:33:08;;;;;;;22.95;17.83;;;9.10;99.90;;;;;;4952359;28;20073;-77
2022/11/16 03:35:53;;;;;;;26.30;18.10;;;9.10;99.90;;;;;;4940395;28;20045;-77
2022/11/16 03:38:23;;;;;;;28.80;20.10;;;9.10;99.90;;;;;;4964940;28;20050;-77
2022/11/16 03:40:51;;;;;;;27.83;19.85;;;9.10;99.90;;;;;;4968996;28;20044;-77
2022/11/16 03:43:19;;;;;;;25.50;19.33;;;9.00;99.90;;;;;;4945013;28;20412;-77
2022/11/16 03:45:46;;;;;;;25.27;19.42;;;9.00;99.90;;;;;;4957070;28;20046;-79
2022/11/16 03:48:13;;;;;;;27.65;22.65;;;9.00;99.90;;;;;;4963477;28;20054;-78
2022/11/16 03:50:41;;;;;;;32.22;21.85;;;9.00;99.90;;;;;;4936247;28;20050;-78
2022/11/16 03:53:08;;;;;;;28.98;21.90;;;9.00;99.90;;;;;;4951261;28;20647;-77
2022/11/16 03:55:36;;;;;;;25.02;18.52;;;8.90;99.90;;;;;;4952952;28;20202;-78
2022/11/16 03:58:04;;;;;;;33.33;22.42;;;9.00;99.90;;;;;;4955432;28;20068;-79
2022/11/16 04:00:31;;;;;;;33.08;23.02;;;8.90;99.90;;;;;;4954196;28;20112;-79
2022/11/16 04:03:04;;;;;;;33.63;23.70;;;9.00;99.90;;;;;;4975626;28;20125;-77
2022/11/16 04:25:46;;;;;;;35.60;24.10;;;8.90;99.90;;;;;;4949763;28;19922;-77
2022/11/16 04:28:18;;;;;;;44.17;25.98;;;8.90;99.90;;;;;;4956623;28;20068;-77
2022/11/16 04:39:15;;;;;;;35.80;22.73;;;8.90;99.90;;;;;;4974500;28;20051;-78
2022/11/16 04:47:20;;;;;;;40.33;25.75;;;8.90;99.90;;;;;;4947441;28;20046;-77
2022/11/16 04:49:54;;;;;;;43.00;26.70;;;8.90;99.90;;;;;;4944544;28;20150;-78
2022/11/16 04:52:21;;;;;;;38.78;25.23;;;8.90;99.90;;;;;;4945245;28;20110;-78
2022/11/16 04:54:48;;;;;;;39.25;25.65;;;8.90;99.90;;;;;;4943706;28;20046;-77
2022/11/16 04:57:16;;;;;;;43.08;26.73;;;8.90;99.90;;;;;;4952932;28;20097;-78
2022/11/16 04:59:44;;;;;;;36.55;24.83;;;8.90;99.90;;;;;;4961971;28;20074;-78
2022/11/16 05:02:11;;;;;;;35.50;22.10;;;8.90;99.90;;;;;;4958626;28;20089;-78
2022/11/16 05:04:47;;;;;;;36.50;26.00;;;8.90;99.90;;;;;;4950796;28;20082;-78
2022/11/16 05:07:15;;;;;;;37.08;23.42;;;8.90;99.90;;;;;;4937904;28;20046;-78
2022/11/16 05:09:46;;;;;;;37.33;25.95;;;8.90;99.90;;;;;;4975309;28;20139;-78
2022/11/16 05:12:21;;;;;;;43.22;26.17;;;8.90;99.90;;;;;;4958337;28;20078;-78
2022/11/16 05:14:54;;;;;;;41.08;26.15;;;8.90;99.90;;;;;;4952780;28;20066;-78
2022/11/16 05:17:24;;;;;;;46.40;28.65;;;8.80;99.90;;;;;;4939503;28;20052;-78
2022/11/16 05:22:54;;;;;;;49.50;29.10;;;8.90;99.90;;;;;;4952554;28;20046;-78
2022/11/16 05:25:22;;;;;;;46.30;27.60;;;8.90;99.90;;;;;;4959410;28;20121;-78
2022/11/16 05:27:49;;;;;;;46.38;30.27;;;8.90;99.90;;;;;;4962984;28;20126;-78
2022/11/16 05:30:16;;;;;;;45.78;28.15;;;8.90;99.90;;;;;;4976251;28;20081;-77
2022/11/16 05:32:43;;;;;;;45.45;27.95;;;8.90;99.90;;;;;;4958714;28;20138;-77
2022/11/16 05:35:11;;;;;;;49.35;29.27;;;8.90;99.90;;;;;;4954819;28;20053;-78
2022/11/16 05:37:38;;;;;;;48.58;29.63;;;8.90;99.90;;;;;;4950424;28;20125;-77
2022/11/16 05:40:08;;;;;;;53.13;31.10;;;8.90;99.90;;;;;;4942154;28;20054;-77
2022/11/16 05:42:44;;;;;;;48.92;30.33;;;8.90;99.90;;;;;;4958205;28;20605;-78
2022/11/16 05:45:11;;;;;;;51.72;31.27;;;8.90;99.90;;;;;;4937707;28;20427;-77
2022/11/16 05:47:43;;;;;;;48.13;29.13;;;9.00;99.90;;;;;;4944008;28;20073;-77
2022/11/16 05:50:10;;;;;;;54.38;31.80;;;8.90;99.90;;;;;;4956308;28;20731;-78
2022/11/16 05:52:39;;;;;;;50.22;30.20;;;8.90;99.90;;;;;;4955160;28;20043;-77
2022/11/16 05:55:10;;;;;;;52.88;32.03;;;8.90;99.90;;;;;;4947004;28;20155;-78
2022/11/16 05:57:42;;;;;;;47.55;29.15;;;8.90;99.90;;;;;;4937962;28;20595;-77
2022/11/16 06:00:10;;;;;;;50.30;30.45;;;8.90;99.90;;;;;;4957651;28;20038;-78
2022/11/16 06:02:47;;;;;;;49.05;28.85;;;8.80;99.90;;;;;;4944359;28;20046;-78
2022/11/16 06:05:21;;;;;;;53.25;30.10;;;8.90;99.90;;;;;;4946560;28;20038;-78
2022/11/16 06:07:47;;;;;;;51.28;30.33;;;8.90;99.90;;;;;;4958492;28;20042;-78
2022/11/16 06:10:14;;;;;;;53.47;31.23;;;8.90;99.90;;;;;;4931118;28;20579;-78
2022/11/16 06:12:43;;;;;;;59.05;32.05;;;8.90;99.90;;;;;;4953540;28;20092;-77
2022/11/16 06:15:11;;;;;;;53.28;29.83;;;8.90;99.90;;;;;;4936305;29;20046;-78
2022/11/16 06:17:38;;;;;;;57.03;30.63;;;8.90;99.90;;;;;;4971364;28;20042;-77
2022/11/16 06:20:06;;;;;;;49.00;30.92;;;8.90;99.90;;;;;;4945288;28;20069;-78
2022/11/16 06:22:32;;;;;;;53.33;30.73;;;8.90;99.90;;;;;;4962672;28;20637;-77
2022/11/16 06:24:59;;;;;;;52.30;30.30;;;9.00;99.90;;;;;;4960976;28;20066;-78
2022/11/16 06:27:26;;;;;;;51.55;32.13;;;9.00;99.90;;;;;;4946841;28;20101;-77
2022/11/16 06:29:53;;;;;;;50.25;30.35;;;8.90;99.90;;;;;;4936032;28;20078;-77
2022/11/16 06:32:20;;;;;;;52.03;30.27;;;9.00;99.90;;;;;;4945672;28;20035;-77
2022/11/16 06:34:47;;;;;;;50.55;28.10;;;8.90;99.90;;;;;;4951596;28;20042;-77
2022/11/16 06:37:14;;;;;;;50.03;29.50;;;8.90;99.90;;;;;;4947160;28;20053;-77
2022/11/16 06:39:41;;;;;;;44.20;24.73;;;8.90;99.90;;;;;;4957775;28;20042;-76
2022/11/16 06:42:11;;;;;;;54.35;30.90;;;8.90;99.90;;;;;;4946481;28;20105;-77
2022/11/16 06:44:39;;;;;;;51.78;31.05;;;8.90;99.90;;;;;;4954304;28;20070;-76
2022/11/16 06:47:17;;;;;;;48.67;29.73;;;8.90;99.90;;;;;;4951419;28;20049;-78
2022/11/16 06:49:46;;;;;;;48.72;28.00;;;8.90;99.90;;;;;;4960205;28;20129;-78
2022/11/16 06:52:19;;;;;;;46.67;28.92;;;8.90;99.90;;;;;;4941264;28;20236;-77
2022/11/16 06:54:45;;;;;;;50.22;30.23;;;8.90;99.90;;;;;;4948510;28;20473;-77
2022/11/16 06:57:12;;;;;;;54.85;31.50;;;8.90;99.90;;;;;;4972580;28;20058;-77
2022/11/16 06:59:39;;;;;;;54.90;32.33;;;8.90;99.90;;;;;;4941566;28;20752;-77
2022/11/16 07:02:09;;;;;;;52.97;31.33;;;8.90;99.90;;;;;;4950440;28;20042;-77
2022/11/16 07:04:37;;;;;;;48.80;28.63;;;8.90;99.90;;;;;;4958869;28;20050;-77
2022/11/16 07:07:04;;;;;;;48.97;29.05;;;9.00;99.90;;;;;;4941700;28;20108;-77
2022/11/16 07:09:35;;;;;;;55.97;31.75;;;8.90;99.90;;;;;;4967376;28;20431;-77
2022/11/16 07:12:03;;;;;;;48.60;29.92;;;8.90;99.90;;;;;;4948760;28;21016;-77
2022/11/16 07:14:35;;;;;;;50.13;32.38;;;8.90;99.90;;;;;;4952413;28;20555;-77
2022/11/16 07:17:03;;;;;;;48.90;30.00;;;9.00;99.90;;;;;;4936268;28;20074;-77
2022/11/16 07:19:35;;;;;;;48.80;30.90;;;9.00;99.90;;;;;;4953655;28;20109;-77
2022/11/16 07:22:03;;;;;;;52.85;30.55;;;9.00;99.90;;;;;;4958123;28;20046;-77
2022/11/16 07:24:30;;;;;;;51.50;31.05;;;9.00;99.90;;;;;;4963979;28;20664;-77
2022/11/16 07:27:00;;;;;;;52.85;29.85;;;9.00;99.90;;;;;;4945582;28;20050;-77
2022/11/16 07:29:33;;;;;;;49.40;29.48;;;9.00;99.90;;;;;;4951273;28;20046;-77
2022/11/16 07:32:19;;;;;;;52.33;29.70;;;8.90;99.90;;;;;;4935801;28;20053;-77
2022/11/16 07:35:00;;;;;;;49.78;29.77;;;9.00;99.90;;;;;;4934191;28;20125;-77
2022/11/16 07:37:27;;;;;;;49.13;29.67;;;9.10;99.90;;;;;;4960762;28;20074;-77
2022/11/16 07:39:54;;;;;;;53.15;30.95;;;9.00;99.90;;;;;;4950358;28;20059;-77
2022/11/16 07:42:22;;;;;;;52.75;31.55;;;9.10;99.90;;;;;;4956263;28;20041;-79
2022/11/16 07:45:08;;;;;;;51.10;30.95;;;9.10;99.90;;;;;;4945625;28;20117;-77
2022/11/16 07:47:39;;;;;;;49.72;29.50;;;9.10;99.90;;;;;;4952856;28;20126;-77
2022/11/16 07:50:15;;;;;;;45.58;28.42;;;9.10;99.90;;;;;;4943722;28;20038;-76
2022/11/16 07:52:57;;;;;;;53.53;31.80;;;9.10;99.90;;;;;;4970523;28;20046;-77
2022/11/16 07:55:30;;;;;;;48.58;29.17;;;9.10;99.90;;;;;;4951641;28;20046;-77
2022/11/16 07:57:58;;;;;;;49.47;30.00;;;9.20;99.90;;;;;;4975367;28;20504;-77
2022/11/16 08:00:25;;;;;;;53.90;31.25;;;9.20;99.90;;;;;;4934487;29;20035;-77
2022/11/16 08:03:02;;;;;;;49.83;32.22;;;9.20;99.90;;;;;;4947595;28;20042;-77
2022/11/16 08:05:28;;;;;;;51.50;30.52;;;9.10;99.90;;;;;;4949391;28;20081;-77
2022/11/16 08:07:56;;;;;;;53.08;32.88;;;9.10;99.90;;;;;;4963796;28;20412;-77
2022/11/16 08:10:24;;;;;;;49.75;32.30;;;9.10;99.90;;;;;;4951473;28;20042;-77
2022/11/16 08:12:53;;;;;;;53.17;32.80;;;9.10;99.90;;;;;;4937402;28;20051;-77
2022/11/16 08:15:23;;;;;;;48.85;31.02;;;9.20;99.90;;;;;;4953940;28;20068;-77
2022/11/16 08:17:50;;;;;;;47.90;30.38;;;9.30;99.90;;;;;;4956651;28;20054;-77
2022/11/16 08:20:31;;;;;;;;;;;;;;;;;;;;;
2022/11/16 08:22:59;;;;;;;47.83;29.90;;;9.30;99.90;;;;;;4956840;28;20050;-77
2022/11/16 08:25:31;;;;;;;48.22;29.10;;;9.30;99.90;;;;;;4958996;28;20715;-77
2022/11/16 08:27:58;;;;;;;47.28;27.27;;;9.40;99.90;;;;;;4974584;28;20043;-77
2022/11/16 08:30:25;;;;;;;46.78;28.42;;;9.40;99.90;;;;;;4957521;28;20042;-77
2022/11/16 08:32:53;;;;;;;45.25;27.10;;;9.40;99.90;;;;;;4956045;28;20051;-77
2022/11/16 08:35:42;;;;;;;41.22;26.00;;;9.40;99.90;;;;;;4947656;28;20070;-77
2022/11/16 08:38:26;;;;;;;35.45;23.77;;;9.40;99.90;;;;;;4941683;28;20065;-77
2022/11/16 08:40:54;;;;;;;38.38;23.95;;;9.50;99.90;;;;;;4947865;28;20496;-77
2022/11/16 08:43:23;;;;;;;43.08;27.42;;;9.40;99.90;;;;;;4951642;28;20043;-78
2022/11/16 08:45:52;;;;;;;39.08;25.10;;;9.50;99.90;;;;;;4954010;28;20046;-77
2022/11/16 08:48:21;;;;;;;44.00;27.10;;;9.50;99.90;;;;;;4950632;28;20070;-77
2022/11/16 08:50:48;;;;;;;36.92;24.65;;;9.50;99.90;;;;;;4949476;28;20057;-77
2022/11/16 08:53:38;;;;;;;38.25;24.95;;;9.60;99.90;;;;;;4941427;28;20038;-77
2022/11/16 08:56:13;;;;;;;39.65;25.55;;;9.60;99.90;;;;;;4951284;28;20532;-77
2022/11/16 08:58:42;;;;;;;39.15;26.10;;;9.50;99.90;;;;;;4935098;28;20400;-77
2022/11/16 09:01:17;;;;;;;38.38;25.65;;;9.60;99.90;;;;;;4947621;28;20066;-77
2022/11/16 09:03:49;;;;;;;41.40;25.98;;;9.60;99.90;;;;;;4925903;28;20050;-76
2022/11/16 09:06:15;;;;;;;38.15;26.15;;;9.60;99.90;;;;;;4936728;28;20038;-77
2022/11/16 09:08:44;;;;;;;33.63;25.38;;;9.70;99.90;;;;;;4958137;28;20042;-76
2022/11/16 09:11:15;;;;;;;38.85;25.45;;;9.60;99.90;;;;;;4948518;28;20074;-76
2022/11/16 09:13:43;;;;;;;37.42;23.05;;;9.60;99.90;;;;;;4950670;28;20047;-76
2022/11/16 09:16:10;;;;;;;29.95;21.17;;;9.70;99.90;;;;;;4975490;28;20475;-77
2022/11/16 09:18:37;;;;;;;34.08;22.52;;;9.60;99.90;;;;;;4952977;28;20504;-76
2022/11/16 09:21:04;;;;;;;25.52;19.52;;;9.80;99.90;;;;;;4974363;28;20809;-77
2022/11/16 09:23:33;;;;;;;22.35;16.70;;;9.90;99.90;;;;;;4959103;28;20081;-77
2022/11/16 09:26:02;;;;;;;21.88;16.80;;;10.00;99.90;;;;;;4969966;28;20524;-77
2022/11/16 09:28:30;;;;;;;24.48;19.20;;;10.10;99.90;;;;;;4951348;28;20120;-77
2022/11/16 09:31:00;;;;;;;22.00;16.67;;;10.20;99.90;;;;;;4956047;28;20864;-77
2022/11/16 09:33:29;;;;;;;19.95;16.58;;;10.20;99.90;;;;;;4954018;28;20057;-77
2022/11/16 09:36:05;;;;;;;18.52;16.48;;;10.20;99.90;;;;;;4972357;28;20121;-78
2022/11/16 09:38:43;;;;;;;20.63;17.73;;;10.20;99.90;;;;;;4974101;28;20058;-77
2022/11/16 09:41:38;;;;;;;21.95;18.45;;;10.20;99.90;;;;;;4966999;28;20138;-76
2022/11/16 09:44:20;;;;;;;20.67;17.67;;;10.20;99.90;;;;;;4951227;28;20050;-77
2022/11/16 09:46:55;;;;;;;19.90;16.02;;;10.20;99.90;;;;;;4967796;28;20416;-77
2022/11/16 09:49:27;;;;;;;22.40;16.85;;;10.20;99.90;;;;;;4951792;28;20420;-77
2022/11/16 09:52:01;;;;;;;20.88;16.80;;;10.20;99.90;;;;;;4955761;28;20142;-77
2022/11/16 09:54:36;;;;;;;46.75;30.85;;;10.20;99.90;;;;;;4953302;28;20046;-77
2022/11/16 09:57:06;;;;;;;31.33;22.80;;;10.20;99.90;;;;;;4948418;28;20065;-77
2022/11/16 09:59:52;;;;;;;26.42;20.80;;;10.30;99.90;;;;;;4955404;28;20049;-77
2022/11/16 10:02:42;;;;;;;19.10;16.55;;;10.30;99.90;;;;;;4967236;28;20043;-77
2022/11/16 10:05:24;;;;;;;21.88;15.90;;;10.30;99.90;;;;;;4949425;28;20460;-77
2022/11/16 10:08:14;;;;;;;20.02;16.48;;;10.40;99.90;;;;;;4959664;28;20093;-77
2022/11/16 10:11:00;;;;;;;20.10;16.15;;;10.30;99.90;;;;;;4930100;28;20043;-78
2022/11/16 10:13:48;;;;;;;;;;;10.30;99.90;;;;;;4948833;28;20346;-77
2022/11/16 10:16:27;;;;;;;24.60;18.35;;;10.40;99.90;;;;;;4968266;28;19957;-76
2022/11/16 10:19:21;;;;;;;19.08;16.98;;;10.40;99.90;;;;;;4952210;28;20131;-75
2022/11/16 10:21:53;;;;;;;20.02;16.08;;;10.40;99.90;;;;;;4930467;28;20047;-75
2022/11/16 10:24:25;;;;;;;28.27;20.25;;;10.40;99.90;;;;;;4956214;28;20081;-75
2022/11/16 10:27:19;;;;;;;23.75;18.50;;;10.50;99.90;;;;;;4971111;28;20129;-75
2022/11/16 10:30:08;;;;;;;25.27;19.30;;;10.50;99.90;;;;;;4948546;28;20049;-76
2022/11/16 10:32:38;;;;;;;21.40;17.55;;;10.60;99.90;;;;;;4934295;28;20042;-76
2022/11/16 10:35:14;;;;;;;22.38;19.63;;;10.70;99.90;;;;;;4957923;28;20061;-75
2022/11/16 10:37:47;;;;;;;24.67;20.17;;;10.70;99.90;;;;;;4951012;28;20043;-75
2022/11/16 10:40:24;;;;;;;20.42;18.33;;;10.70;99.90;;;;;;4942895;28;20798;-76
2022/11/16 10:43:14;;;;;;;22.83;19.90;;;10.60;99.90;;;;;;4951974;28;20078;-76
2022/11/16 10:46:01;;;;;;;23.05;19.45;;;10.60;99.90;;;;;;4955036;28;20038;-75
2022/11/16 10:49:03;;;;;;;32.63;21.27;;;10.60;99.90;;;;;;4969765;28;20038;-75
2022/11/16 10:51:30;;;;;;;23.98;19.98;;;10.70;99.90;;;;;;4956234;28;20129;-75
2022/11/16 10:53:59;;;;;;;28.23;21.38;;;10.70;99.90;;;;;;4928654;28;20294;-76
2022/11/16 10:56:36;;;;;;;29.73;22.17;;;10.80;99.90;;;;;;4973245;28;20077;-76
2022/11/16 10:59:06;;;;;;;26.30;21.40;;;10.80;99.90;;;;;;4937849;28;20054;-76
2022/11/16 11:01:37;;;;;;;25.73;20.50;;;10.80;99.90;;;;;;4954841;28;20042;-76
2022/11/16 11:04:28;;;;;;;23.70;20.58;;;10.90;99.90;;;;;;4963350;28;20186;-76
2022/11/16 11:07:21;;;;;;;25.30;19.92;;;10.90;99.90;;;;;;4952917;28;20069;-75
2022/11/16 11:09:52;;;;;;;22.00;19.35;;;11.10;99.90;;;;;;4947442;28;20051;-76
2022/11/16 11:12:37;;;;;;;18.25;16.05;;;11.10;99.90;;;;;;4942098;28;20115;-75
2022/11/16 11:15:10;;;;;;;20.05;18.05;;;11.20;99.90;;;;;;4970928;28;20108;-74
2022/11/16 11:17:39;;;;;;;21.23;19.13;;;11.20;99.90;;;;;;4950446;28;20049;-76
2022/11/16 11:20:23;;;;;;;19.33;17.48;;;11.30;99.90;;;;;;4976059;28;20098;-75
2022/11/16 11:22:55;;;;;;;21.15;19.00;;;11.40;99.90;;;;;;4942822;28;20101;-75
2022/11/16 11:25:33;;;;;;;16.45;15.07;;;11.60;99.90;;;;;;4928574;28;20055;-76
2022/11/16 11:28:06;;;;;;;15.88;14.57;;;11.50;99.90;;;;;;4966326;28;20254;-74
2022/11/16 11:30:33;;;;;;;16.95;15.75;;;11.30;99.90;;;;;;4934735;28;20049;-75
2022/11/16 11:33:07;;;;;;;19.13;17.45;;;11.30;99.90;;;;;;4942971;28;20460;-75
2022/11/16 11:35:34;;;;;;;17.70;16.50;;;11.30;99.90;;;;;;4967406;28;20046;-75
2022/11/16 11:38:02;;;;;;;17.45;15.88;;;11.20;99.90;;;;;;4960199;28;20049;-75
2022/11/16 11:40:34;;;;;;;17.55;16.30;;;11.10;99.90;;;;;;4953977;28;20411;-75
2022/11/16 11:43:03;;;;;;;17.23;15.88;;;11.10;99.90;;;;;;4953905;28;20046;-75
2022/11/16 11:45:37;;;;;;;16.58;15.38;;;11.00;99.90;;;;;;4960163;28;20082;-75
2022/11/16 11:48:10;;;;;;;24.40;16.35;;;11.10;99.90;;;;;;4973888;28;20081;-75
2022/11/16 11:50:52;;;;;;;15.48;14.35;;;11.20;99.90;;;;;;4957303;28;20134;-75
2022/11/16 11:53:58;;;;;;;17.77;16.25;;;11.50;99.90;;;;;;4946031;28;20047;-75
2022/11/16 11:56:27;;;;;;;15.38;13.95;;;11.70;99.90;;;;;;4939487;28;20046;-75
2022/11/16 11:58:55;;;;;;;17.00;15.70;;;12.00;99.90;;;;;;4948181;28;20051;-74
2022/11/16 12:01:56;;;;;;;17.60;16.10;;;12.10;99.90;;;;;;4939068;28;20348;-75
2022/11/16 12:04:38;;;;;;;20.95;19.15;;;12.20;99.90;;;;;;4951552;28;20461;-75
2022/11/16 12:07:22;;;;;;;22.38;20.88;;;12.20;99.90;;;;;;4949908;28;20088;-75
2022/11/16 12:09:53;;;;;;;20.05;18.27;;;12.20;99.90;;;;;;4952526;28;20042;-74
2022/11/16 12:12:38;;;;;;;19.00;17.55;;;12.30;99.90;;;;;;4952351;28;20121;-75
2022/11/16 12:15:30;;;;;;;24.33;22.52;;;12.30;99.90;;;;;;4928744;28;20047;-75
2022/11/16 12:18:23;;;;;;;21.77;20.30;;;12.30;99.90;;;;;;4933420;28;20043;-74
2022/11/16 12:21:02;;;;;;;23.45;21.65;;;12.30;99.90;;;;;;4948528;28;20124;-76
2022/11/16 12:23:46;;;;;;;23.60;21.90;;;12.20;99.90;;;;;;4950019;28;20073;-75
2022/11/16 12:26:30;;;;;;;23.83;22.33;;;12.30;99.90;;;;;;4961171;28;20129;-75
2022/11/16 12:29:29;;;;;;;24.02;22.40;;;12.10;99.90;;;;;;4943320;28;20131;-75
2022/11/16 12:32:20;;;;;;;23.60;22.02;;;11.90;99.90;;;;;;4970839;28;20130;-75
2022/11/16 12:35:10;;;;;;;23.65;22.00;;;11.80;99.90;;;;;;4936300;28;20129;-75
2022/11/16 12:37:56;;;;;;;23.40;21.80;;;11.60;99.90;;;;;;4969332;28;20381;-75
2022/11/16 12:40:31;;;;;;;26.45;24.23;;;11.60;99.90;;;;;;4949796;28;20427;-76
2022/11/16 12:43:15;;;;;;;26.02;24.10;;;11.50;99.90;;;;;;4964310;28;20518;-77
2022/11/16 12:45:52;;;;;;;24.50;22.90;;;11.50;99.90;;;;;;4950501;28;20062;-76
2022/11/16 12:48:55;;;;;;;27.00;25.05;;;11.40;99.90;;;;;;4943724;28;20130;-76
2022/11/16 12:51:46;;;;;;;25.00;23.50;;;11.60;99.90;;;;;;4933318;28;20038;-75
2022/11/16 12:54:25;;;;;;;24.55;22.83;;;11.60;99.90;;;;;;4940536;28;20043;-75
2022/11/16 12:56:52;;;;;;;25.00;22.67;;;11.60;99.90;;;;;;4946624;28;20077;-76
2022/11/16 12:59:21;;;;;;;22.48;21.00;;;11.70;99.90;;;;;;4934577;28;20393;-76
2022/11/16 13:02:16;;;;;;;23.92;22.23;;;11.80;99.90;;;;;;4936968;28;20085;-76
2022/11/16 13:04:49;;;;;;;25.48;23.77;;;11.80;99.90;;;;;;4942278;28;20057;-75
2022/11/16 13:07:25;;;;;;;26.02;24.38;;;11.70;99.90;;;;;;4956049;28;20031;-75
2022/11/16 13:09:59;;;;;;;26.85;25.02;;;11.60;99.90;;;;;;4967140;28;21565;-78
2022/11/16 13:12:29;;;;;;;26.70;24.83;;;11.50;99.90;;;;;;4939154;28;20174;-76
2022/11/16 13:14:59;;;;;;;27.08;24.58;;;11.50;99.90;;;;;;4951578;28;20466;-77
2022/11/16 13:17:37;;;;;;;26.75;25.23;;;11.30;99.90;;;;;;4950735;28;20074;-77
2022/11/16 13:20:39;;;;;;;26.27;24.50;;;11.20;99.90;;;;;;4965605;28;20237;-77
2022/11/16 13:23:17;;;;;;;26.98;25.17;;;11.20;99.90;;;;;;4962105;28;20047;-77
2022/11/16 13:25:56;;;;;;;26.38;24.63;;;11.10;99.90;;;;;;4948263;28;20043;-78
2022/11/16 13:28:33;;;;;;;27.70;25.90;;;11.00;99.90;;;;;;4948169;28;20047;-76
2022/11/16 13:31:07;;;;;;;27.80;25.88;;;10.90;99.90;;;;;;4962836;28;20045;-77
2022/11/16 13:33:48;;;;;;;26.55;24.77;;;11.00;99.90;;;;;;4947051;28;20039;-75
2022/11/16 13:36:42;;;;;;;28.25;26.48;;;11.00;99.90;;;;;;4942926;28;20049;-78
2022/11/16 13:39:11;;;;;;;26.90;25.00;;;11.00;99.90;;;;;;4948424;28;21183;-76
2022/11/16 13:42:03;;;;;;;29.50;26.95;;;11.00;99.90;;;;;;4961588;28;20042;-76
2022/11/16 13:44:30;;;;;;;27.35;25.10;;;11.00;99.90;;;;;;4946178;28;20496;-76
2022/11/16 13:47:03;;;;;;;27.25;25.23;;;11.00;99.90;;;;;;4943274;28;20050;-77
2022/11/16 13:49:34;;;;;;;27.63;25.40;;;11.10;99.90;;;;;;4948251;28;20046;-77
2022/11/16 13:52:11;;;;;;;26.42;24.20;;;11.00;99.90;;;;;;4966159;28;20137;-78
2022/11/16 13:55:10;;;;;;;25.75;23.70;;;11.00;99.90;;;;;;4965542;28;20031;-76